sensor_id;sensor_type;location;lat;lon;timestamp;P1;durP1;ratioP1;P2;durP2;ratioP2
74593;SDS011;63097;51.872;4.460;2023-03-04T00:00:59;14.32;;;2.10;;
74593;SDS011;63097;51.872;4.460;2023-03-04T00:03:24;25.48;;;3.00;;
74593;SDS011;63097;51.872;4.460;2023-03-04T00:05:49;18.50;;;2.63;;
74593;SDS011;63097;51.872;4.460;2023-03-04T00:08:14;11.70;;;1.77;;
74593;SDS011;63097;51.872;4.460;2023-03-04T00:10:40;18.67;;;1.92;;
74593;SDS011;63097;51.872;4.460;2023-03-04T00:13:05;16.20;;;1.73;;
74593;SDS011;63097;51.872;4.460;2023-03-04T00:15:31;19.05;;;1.83;;
74593;SDS011;63097;51.872;4.460;2023-03-04T00:17:56;17.35;;;1.92;;
74593;SDS011;63097;51.872;4.460;2023-03-04T00:20:21;17.95;;;1.60;;
74593;SDS011;63097;51.872;4.460;2023-03-04T00:22:46;11.55;;;1.65;;
74593;SDS011;63097;51.872;4.460;2023-03-04T00:25:12;17.13;;;1.77;;
74593;SDS011;63097;51.872;4.460;2023-03-04T00:27:37;17.20;;;1.88;;
74593;SDS011;63097;51.872;4.460;2023-03-04T00:30:03;21.20;;;1.83;;
74593;SDS011;63097;51.872;4.460;2023-03-04T00:32:30;15.18;;;1.80;;
74593;SDS011;63097;51.872;4.460;2023-03-04T00:34:56;12.25;;;1.67;;
74593;SDS011;63097;51.872;4.460;2023-03-04T00:37:21;18.55;;;2.10;;
74593;SDS011;63097;51.872;4.460;2023-03-04T00:39:46;23.08;;;2.00;;
74593;SDS011;63097;51.872;4.460;2023-03-04T00:42:12;11.25;;;1.52;;
74593;SDS011;63097;51.872;4.460;2023-03-04T00:44:37;10.68;;;1.90;;
74593;SDS011;63097;51.872;4.460;2023-03-04T00:47:02;16.80;;;1.27;;
74593;SDS011;63097;51.872;4.460;2023-03-04T00:49:28;11.45;;;1.00;;
74593;SDS011;63097;51.872;4.460;2023-03-04T00:51:53;10.45;;;1.33;;
74593;SDS011;63097;51.872;4.460;2023-03-04T00:54:18;12.30;;;1.20;;
74593;SDS011;63097;51.872;4.460;2023-03-04T00:56:44;11.77;;;1.80;;
74593;SDS011;63097;51.872;4.460;2023-03-04T00:59:09;21.35;;;1.48;;
74593;SDS011;63097;51.872;4.460;2023-03-04T01:01:34;10.02;;;0.88;;
74593;SDS011;63097;51.872;4.460;2023-03-04T01:04:00;16.55;;;2.00;;
74593;SDS011;63097;51.872;4.460;2023-03-04T01:06:25;11.00;;;0.95;;
74593;SDS011;63097;51.872;4.460;2023-03-04T01:08:50;15.35;;;1.40;;
74593;SDS011;63097;51.872;4.460;2023-03-04T01:11:16;13.88;;;1.38;;
74593;SDS011;63097;51.872;4.460;2023-03-04T01:13:41;13.10;;;1.45;;
74593;SDS011;63097;51.872;4.460;2023-03-04T01:16:06;11.30;;;1.45;;
74593;SDS011;63097;51.872;4.460;2023-03-04T01:18:32;11.30;;;1.80;;
74593;SDS011;63097;51.872;4.460;2023-03-04T01:20:58;13.52;;;1.80;;
74593;SDS011;63097;51.872;4.460;2023-03-04T01:23:23;19.70;;;1.40;;
74593;SDS011;63097;51.872;4.460;2023-03-04T01:25:48;11.38;;;1.30;;
74593;SDS011;63097;51.872;4.460;2023-03-04T01:28:14;11.88;;;1.50;;
74593;SDS011;63097;51.872;4.460;2023-03-04T01:30:39;13.70;;;1.77;;
74593;SDS011;63097;51.872;4.460;2023-03-04T01:33:05;6.97;;;1.33;;
74593;SDS011;63097;51.872;4.460;2023-03-04T01:35:30;16.70;;;1.38;;
74593;SDS011;63097;51.872;4.460;2023-03-04T01:37:56;10.68;;;1.13;;
74593;SDS011;63097;51.872;4.460;2023-03-04T01:40:21;11.80;;;1.10;;
74593;SDS011;63097;51.872;4.460;2023-03-04T01:42:47;7.35;;;1.27;;
74593;SDS011;63097;51.872;4.460;2023-03-04T01:45:13;12.10;;;1.58;;
74593;SDS011;63097;51.872;4.460;2023-03-04T01:47:41;8.55;;;0.82;;
74593;SDS011;63097;51.872;4.460;2023-03-04T01:50:10;13.07;;;1.00;;
74593;SDS011;63097;51.872;4.460;2023-03-04T01:52:42;14.10;;;0.95;;
74593;SDS011;63097;51.872;4.460;2023-03-04T01:55:14;17.27;;;1.25;;
74593;SDS011;63097;51.872;4.460;2023-03-04T01:57:40;10.50;;;0.88;;
74593;SDS011;63097;51.872;4.460;2023-03-04T02:00:22;15.35;;;1.35;;
74593;SDS011;63097;51.872;4.460;2023-03-04T02:02:56;13.77;;;1.40;;
74593;SDS011;63097;51.872;4.460;2023-03-04T02:05:24;10.48;;;1.42;;
74593;SDS011;63097;51.872;4.460;2023-03-04T02:07:50;17.13;;;1.70;;
74593;SDS011;63097;51.872;4.460;2023-03-04T02:10:16;7.50;;;0.73;;
74593;SDS011;63097;51.872;4.460;2023-03-04T02:12:43;10.15;;;1.30;;
74593;SDS011;63097;51.872;4.460;2023-03-04T02:15:09;19.73;;;1.30;;
74593;SDS011;63097;51.872;4.460;2023-03-04T02:17:35;14.45;;;1.27;;
74593;SDS011;63097;51.872;4.460;2023-03-04T02:22:31;9.38;;;1.65;;
74593;SDS011;63097;51.872;4.460;2023-03-04T02:25:12;6.30;;;1.35;;
74593;SDS011;63097;51.872;4.460;2023-03-04T02:27:43;18.42;;;1.88;;
74593;SDS011;63097;51.872;4.460;2023-03-04T02:30:09;12.15;;;1.98;;
74593;SDS011;63097;51.872;4.460;2023-03-04T02:32:36;15.43;;;2.45;;
74593;SDS011;63097;51.872;4.460;2023-03-04T02:35:01;13.05;;;2.28;;
74593;SDS011;63097;51.872;4.460;2023-03-04T02:37:26;11.90;;;1.90;;
74593;SDS011;63097;51.872;4.460;2023-03-04T02:39:52;14.02;;;1.90;;
74593;SDS011;63097;51.872;4.460;2023-03-04T02:42:18;15.77;;;1.88;;
74593;SDS011;63097;51.872;4.460;2023-03-04T02:44:44;16.02;;;1.90;;
74593;SDS011;63097;51.872;4.460;2023-03-04T02:47:10;13.90;;;2.20;;
74593;SDS011;63097;51.872;4.460;2023-03-04T02:49:38;12.25;;;1.38;;
74593;SDS011;63097;51.872;4.460;2023-03-04T02:52:08;16.55;;;1.77;;
74593;SDS011;63097;51.872;4.460;2023-03-04T02:54:39;14.15;;;1.98;;
74593;SDS011;63097;51.872;4.460;2023-03-04T02:57:05;5.97;;;0.77;;
74593;SDS011;63097;51.872;4.460;2023-03-04T02:59:32;9.35;;;0.82;;
74593;SDS011;63097;51.872;4.460;2023-03-04T03:01:58;12.32;;;1.10;;
74593;SDS011;63097;51.872;4.460;2023-03-04T03:04:24;10.38;;;1.13;;
74593;SDS011;63097;51.872;4.460;2023-03-04T03:06:50;12.65;;;1.27;;
74593;SDS011;63097;51.872;4.460;2023-03-04T03:09:16;9.98;;;1.00;;
74593;SDS011;63097;51.872;4.460;2023-03-04T03:11:42;6.65;;;0.88;;
74593;SDS011;63097;51.872;4.460;2023-03-04T03:14:07;13.65;;;1.92;;
74593;SDS011;63097;51.872;4.460;2023-03-04T03:16:32;16.35;;;1.38;;
74593;SDS011;63097;51.872;4.460;2023-03-04T03:18:58;7.57;;;1.70;;
74593;SDS011;63097;51.872;4.460;2023-03-04T03:21:24;6.55;;;0.90;;
74593;SDS011;63097;51.872;4.460;2023-03-04T03:23:49;9.02;;;1.23;;
74593;SDS011;63097;51.872;4.460;2023-03-04T03:26:14;13.30;;;0.88;;
74593;SDS011;63097;51.872;4.460;2023-03-04T03:28:40;14.45;;;0.90;;
74593;SDS011;63097;51.872;4.460;2023-03-04T03:31:05;13.93;;;1.00;;
74593;SDS011;63097;51.872;4.460;2023-03-04T03:33:31;14.55;;;1.02;;
74593;SDS011;63097;51.872;4.460;2023-03-04T03:35:56;16.38;;;1.85;;
74593;SDS011;63097;51.872;4.460;2023-03-04T03:38:22;22.10;;;1.55;;
74593;SDS011;63097;51.872;4.460;2023-03-04T03:40:47;21.27;;;1.67;;
74593;SDS011;63097;51.872;4.460;2023-03-04T03:43:12;17.60;;;1.10;;
74593;SDS011;63097;51.872;4.460;2023-03-04T03:45:38;14.75;;;1.20;;
74593;SDS011;63097;51.872;4.460;2023-03-04T03:48:03;10.23;;;1.27;;
74593;SDS011;63097;51.872;4.460;2023-03-04T03:50:28;14.98;;;1.40;;
74593;SDS011;63097;51.872;4.460;2023-03-04T03:52:54;14.57;;;1.48;;
74593;SDS011;63097;51.872;4.460;2023-03-04T03:55:20;11.43;;;0.90;;
74593;SDS011;63097;51.872;4.460;2023-03-04T03:57:45;15.18;;;1.15;;
74593;SDS011;63097;51.872;4.460;2023-03-04T04:00:11;10.20;;;1.83;;
74593;SDS011;63097;51.872;4.460;2023-03-04T04:02:37;7.18;;;1.00;;
74593;SDS011;63097;51.872;4.460;2023-03-04T04:05:03;5.50;;;0.70;;
74593;SDS011;63097;51.872;4.460;2023-03-04T04:07:29;15.00;;;0.77;;
74593;SDS011;63097;51.872;4.460;2023-03-04T04:09:54;14.57;;;1.33;;
74593;SDS011;63097;51.872;4.460;2023-03-04T04:12:19;7.00;;;1.15;;
74593;SDS011;63097;51.872;4.460;2023-03-04T04:14:45;7.68;;;1.10;;
74593;SDS011;63097;51.872;4.460;2023-03-04T04:17:10;15.32;;;0.98;;
74593;SDS011;63097;51.872;4.460;2023-03-04T04:19:36;6.85;;;0.98;;
74593;SDS011;63097;51.872;4.460;2023-03-04T04:22:02;9.45;;;0.90;;
74593;SDS011;63097;51.872;4.460;2023-03-04T04:24:27;9.45;;;1.25;;
74593;SDS011;63097;51.872;4.460;2023-03-04T04:26:53;10.55;;;0.80;;
74593;SDS011;63097;51.872;4.460;2023-03-04T04:29:18;9.35;;;0.88;;
74593;SDS011;63097;51.872;4.460;2023-03-04T04:31:44;12.25;;;1.10;;
74593;SDS011;63097;51.872;4.460;2023-03-04T04:34:09;9.00;;;1.20;;
74593;SDS011;63097;51.872;4.460;2023-03-04T04:36:34;10.85;;;0.98;;
74593;SDS011;63097;51.872;4.460;2023-03-04T04:39:00;9.75;;;1.30;;
74593;SDS011;63097;51.872;4.460;2023-03-04T04:41:27;16.08;;;1.98;;
74593;SDS011;63097;51.872;4.460;2023-03-04T04:43:54;12.88;;;1.45;;
74593;SDS011;63097;51.872;4.460;2023-03-04T04:46:20;11.93;;;1.30;;
74593;SDS011;63097;51.872;4.460;2023-03-04T04:48:45;9.07;;;1.45;;
74593;SDS011;63097;51.872;4.460;2023-03-04T04:51:11;11.05;;;1.38;;
74593;SDS011;63097;51.872;4.460;2023-03-04T04:53:36;15.25;;;1.95;;
74593;SDS011;63097;51.872;4.460;2023-03-04T04:56:09;9.15;;;1.52;;
74593;SDS011;63097;51.872;4.460;2023-03-04T04:58:35;5.57;;;1.50;;
74593;SDS011;63097;51.872;4.460;2023-03-04T05:01:01;10.60;;;1.15;;
74593;SDS011;63097;51.872;4.460;2023-03-04T05:03:26;7.80;;;1.10;;
74593;SDS011;63097;51.872;4.460;2023-03-04T05:05:52;15.13;;;1.13;;
74593;SDS011;63097;51.872;4.460;2023-03-04T05:08:17;9.05;;;1.00;;
74593;SDS011;63097;51.872;4.460;2023-03-04T05:10:42;4.63;;;0.90;;
74593;SDS011;63097;51.872;4.460;2023-03-04T05:13:07;10.00;;;0.82;;
74593;SDS011;63097;51.872;4.460;2023-03-04T05:15:33;14.38;;;1.00;;
74593;SDS011;63097;51.872;4.460;2023-03-04T05:17:58;9.70;;;1.40;;
74593;SDS011;63097;51.872;4.460;2023-03-04T05:20:23;14.52;;;1.50;;
74593;SDS011;63097;51.872;4.460;2023-03-04T05:22:49;9.20;;;1.67;;
74593;SDS011;63097;51.872;4.460;2023-03-04T05:25:14;11.77;;;1.50;;
74593;SDS011;63097;51.872;4.460;2023-03-04T05:27:39;10.38;;;1.80;;
74593;SDS011;63097;51.872;4.460;2023-03-04T05:30:05;17.52;;;2.40;;
74593;SDS011;63097;51.872;4.460;2023-03-04T05:32:31;9.95;;;1.58;;
74593;SDS011;63097;51.872;4.460;2023-03-04T05:34:56;13.15;;;1.67;;
74593;SDS011;63097;51.872;4.460;2023-03-04T05:37:21;6.40;;;1.30;;
74593;SDS011;63097;51.872;4.460;2023-03-04T05:39:47;18.23;;;1.30;;
74593;SDS011;63097;51.872;4.460;2023-03-04T05:42:12;8.70;;;1.77;;
74593;SDS011;63097;51.872;4.460;2023-03-04T05:44:37;10.10;;;1.17;;
74593;SDS011;63097;51.872;4.460;2023-03-04T05:47:02;7.22;;;1.17;;
74593;SDS011;63097;51.872;4.460;2023-03-04T05:49:28;9.23;;;1.30;;
74593;SDS011;63097;51.872;4.460;2023-03-04T05:51:53;14.38;;;1.70;;
74593;SDS011;63097;51.872;4.460;2023-03-04T05:54:18;13.82;;;1.85;;
74593;SDS011;63097;51.872;4.460;2023-03-04T05:56:44;17.80;;;1.58;;
74593;SDS011;63097;51.872;4.460;2023-03-04T05:59:09;12.48;;;1.40;;
74593;SDS011;63097;51.872;4.460;2023-03-04T06:01:34;5.93;;;1.77;;
74593;SDS011;63097;51.872;4.460;2023-03-04T06:04:00;10.85;;;1.30;;
74593;SDS011;63097;51.872;4.460;2023-03-04T06:06:25;9.55;;;1.10;;
74593;SDS011;63097;51.872;4.460;2023-03-04T06:08:50;11.10;;;1.17;;
74593;SDS011;63097;51.872;4.460;2023-03-04T06:11:16;6.88;;;0.80;;
74593;SDS011;63097;51.872;4.460;2023-03-04T06:13:41;4.95;;;0.80;;
74593;SDS011;63097;51.872;4.460;2023-03-04T06:16:07;6.85;;;1.23;;
74593;SDS011;63097;51.872;4.460;2023-03-04T06:18:33;13.35;;;1.42;;
74593;SDS011;63097;51.872;4.460;2023-03-04T06:20:59;11.50;;;1.05;;
74593;SDS011;63097;51.872;4.460;2023-03-04T06:23:26;5.50;;;0.70;;
74593;SDS011;63097;51.872;4.460;2023-03-04T06:25:52;7.43;;;1.13;;
74593;SDS011;63097;51.872;4.460;2023-03-04T06:28:19;12.43;;;1.48;;
74593;SDS011;63097;51.872;4.460;2023-03-04T06:30:44;12.60;;;1.95;;
74593;SDS011;63097;51.872;4.460;2023-03-04T06:33:10;4.72;;;1.55;;
74593;SDS011;63097;51.872;4.460;2023-03-04T06:35:35;7.22;;;1.10;;
74593;SDS011;63097;51.872;4.460;2023-03-04T06:38:00;13.57;;;1.48;;
74593;SDS011;63097;51.872;4.460;2023-03-04T06:40:26;9.70;;;1.05;;
74593;SDS011;63097;51.872;4.460;2023-03-04T06:42:51;8.10;;;1.25;;
74593;SDS011;63097;51.872;4.460;2023-03-04T06:45:16;8.88;;;0.95;;
74593;SDS011;63097;51.872;4.460;2023-03-04T06:47:42;15.77;;;1.25;;
74593;SDS011;63097;51.872;4.460;2023-03-04T06:50:07;10.10;;;1.00;;
74593;SDS011;63097;51.872;4.460;2023-03-04T06:52:33;10.35;;;0.85;;
74593;SDS011;63097;51.872;4.460;2023-03-04T06:54:58;11.27;;;1.05;;
74593;SDS011;63097;51.872;4.460;2023-03-04T06:57:24;7.63;;;0.90;;
74593;SDS011;63097;51.872;4.460;2023-03-04T06:59:49;10.77;;;1.00;;
74593;SDS011;63097;51.872;4.460;2023-03-04T07:02:14;11.80;;;0.90;;
74593;SDS011;63097;51.872;4.460;2023-03-04T07:04:39;11.00;;;1.50;;
74593;SDS011;63097;51.872;4.460;2023-03-04T07:07:05;10.75;;;1.33;;
74593;SDS011;63097;51.872;4.460;2023-03-04T07:09:30;14.50;;;1.25;;
74593;SDS011;63097;51.872;4.460;2023-03-04T07:11:56;12.20;;;1.65;;
74593;SDS011;63097;51.872;4.460;2023-03-04T07:14:21;13.45;;;1.10;;
74593;SDS011;63097;51.872;4.460;2023-03-04T07:16:46;17.38;;;1.27;;
74593;SDS011;63097;51.872;4.460;2023-03-04T07:19:12;9.48;;;1.00;;
74593;SDS011;63097;51.872;4.460;2023-03-04T07:21:37;11.95;;;1.17;;
74593;SDS011;63097;51.872;4.460;2023-03-04T07:24:02;11.15;;;1.02;;
74593;SDS011;63097;51.872;4.460;2023-03-04T07:26:28;8.18;;;0.90;;
74593;SDS011;63097;51.872;4.460;2023-03-04T07:28:53;9.45;;;1.05;;
74593;SDS011;63097;51.872;4.460;2023-03-04T07:31:28;8.80;;;1.05;;
74593;SDS011;63097;51.872;4.460;2023-03-04T07:33:56;7.57;;;1.35;;
74593;SDS011;63097;51.872;4.460;2023-03-04T07:36:26;7.78;;;1.00;;
74593;SDS011;63097;51.872;4.460;2023-03-04T07:38:51;9.70;;;1.00;;
74593;SDS011;63097;51.872;4.460;2023-03-04T07:41:17;7.57;;;1.10;;
74593;SDS011;63097;51.872;4.460;2023-03-04T07:43:43;5.97;;;0.80;;
74593;SDS011;63097;51.872;4.460;2023-03-04T07:46:08;9.20;;;0.93;;
74593;SDS011;63097;51.872;4.460;2023-03-04T07:48:34;5.97;;;1.20;;
74593;SDS011;63097;51.872;4.460;2023-03-04T07:53:28;6.43;;;0.50;;
74593;SDS011;63097;51.872;4.460;2023-03-04T07:55:53;10.82;;;0.90;;
74593;SDS011;63097;51.872;4.460;2023-03-04T07:58:18;7.60;;;0.70;;
74593;SDS011;63097;51.872;4.460;2023-03-04T08:00:44;8.77;;;0.80;;
74593;SDS011;63097;51.872;4.460;2023-03-04T08:03:09;6.50;;;1.20;;
74593;SDS011;63097;51.872;4.460;2023-03-04T08:05:34;6.47;;;1.10;;
74593;SDS011;63097;51.872;4.460;2023-03-04T08:08:02;9.45;;;0.85;;
74593;SDS011;63097;51.872;4.460;2023-03-04T08:10:28;6.68;;;1.05;;
74593;SDS011;63097;51.872;4.460;2023-03-04T08:12:53;7.13;;;1.33;;
74593;SDS011;63097;51.872;4.460;2023-03-04T08:15:18;5.25;;;1.10;;
74593;SDS011;63097;51.872;4.460;2023-03-04T08:17:44;3.42;;;0.82;;
74593;SDS011;63097;51.872;4.460;2023-03-04T08:20:09;4.32;;;0.95;;
74593;SDS011;63097;51.872;4.460;2023-03-04T08:22:35;4.95;;;1.38;;
74593;SDS011;63097;51.872;4.460;2023-03-04T08:25:00;10.43;;;1.33;;
74593;SDS011;63097;51.872;4.460;2023-03-04T08:27:26;6.65;;;1.10;;
74593;SDS011;63097;51.872;4.460;2023-03-04T08:29:51;11.05;;;1.35;;
74593;SDS011;63097;51.872;4.460;2023-03-04T08:32:16;5.00;;;1.27;;
74593;SDS011;63097;51.872;4.460;2023-03-04T08:34:42;2.00;;;0.90;;
74593;SDS011;63097;51.872;4.460;2023-03-04T08:37:07;9.05;;;0.90;;
74593;SDS011;63097;51.872;4.460;2023-03-04T08:39:32;4.28;;;0.50;;
74593;SDS011;63097;51.872;4.460;2023-03-04T08:41:58;3.65;;;0.60;;
74593;SDS011;63097;51.872;4.460;2023-03-04T08:44:23;4.38;;;0.40;;
74593;SDS011;63097;51.872;4.460;2023-03-04T08:46:48;5.78;;;0.30;;
74593;SDS011;63097;51.872;4.460;2023-03-04T08:49:14;1.42;;;0.30;;
74593;SDS011;63097;51.872;4.460;2023-03-04T08:51:39;2.88;;;0.38;;
74593;SDS011;63097;51.872;4.460;2023-03-04T08:54:04;1.67;;;0.35;;
74593;SDS011;63097;51.872;4.460;2023-03-04T08:56:30;1.73;;;0.38;;
74593;SDS011;63097;51.872;4.460;2023-03-04T08:58:56;1.58;;;0.30;;
74593;SDS011;63097;51.872;4.460;2023-03-04T09:01:22;5.18;;;0.25;;
74593;SDS011;63097;51.872;4.460;2023-03-04T09:03:47;1.75;;;0.10;;
74593;SDS011;63097;51.872;4.460;2023-03-04T09:06:13;1.75;;;0.25;;
74593;SDS011;63097;51.872;4.460;2023-03-04T09:08:40;2.75;;;0.50;;
74593;SDS011;63097;51.872;4.460;2023-03-04T09:11:05;4.07;;;0.50;;
74593;SDS011;63097;51.872;4.460;2023-03-04T09:13:31;4.05;;;0.45;;
74593;SDS011;63097;51.872;4.460;2023-03-04T09:15:56;1.52;;;0.47;;
74593;SDS011;63097;51.872;4.460;2023-03-04T09:18:22;5.40;;;0.38;;
74593;SDS011;63097;51.872;4.460;2023-03-04T09:20:49;1.33;;;0.40;;
74593;SDS011;63097;51.872;4.460;2023-03-04T09:23:15;1.70;;;0.40;;
74593;SDS011;63097;51.872;4.460;2023-03-04T09:25:41;3.05;;;0.55;;
74593;SDS011;63097;51.872;4.460;2023-03-04T09:28:07;1.25;;;0.57;;
74593;SDS011;63097;51.872;4.460;2023-03-04T09:30:33;5.55;;;0.70;;
74593;SDS011;63097;51.872;4.460;2023-03-04T09:32:59;2.28;;;0.40;;
74593;SDS011;63097;51.872;4.460;2023-03-04T09:35:24;2.17;;;0.50;;
74593;SDS011;63097;51.872;4.460;2023-03-04T09:37:50;1.55;;;0.50;;
74593;SDS011;63097;51.872;4.460;2023-03-04T09:40:16;4.18;;;1.08;;
74593;SDS011;63097;51.872;4.460;2023-03-04T09:42:46;8.38;;;1.52;;
74593;SDS011;63097;51.872;4.460;2023-03-04T09:45:21;4.82;;;0.82;;
74593;SDS011;63097;51.872;4.460;2023-03-04T09:47:49;1.90;;;0.40;;
74593;SDS011;63097;51.872;4.460;2023-03-04T09:50:17;2.15;;;0.40;;
74593;SDS011;63097;51.872;4.460;2023-03-04T09:58:05;2.65;;;0.60;;
74593;SDS011;63097;51.872;4.460;2023-03-04T10:00:42;6.43;;;0.90;;
74593;SDS011;63097;51.872;4.460;2023-03-04T10:03:17;6.57;;;0.50;;
74593;SDS011;63097;51.872;4.460;2023-03-04T10:05:49;2.30;;;0.60;;
74593;SDS011;63097;51.872;4.460;2023-03-04T10:08:32;4.32;;;0.82;;
74593;SDS011;63097;51.872;4.460;2023-03-04T10:11:02;1.92;;;0.70;;
74593;SDS011;63097;51.872;4.460;2023-03-04T10:13:46;3.92;;;0.80;;
74593;SDS011;63097;51.872;4.460;2023-03-04T10:16:46;1.15;;;0.57;;
74593;SDS011;63097;51.872;4.460;2023-03-04T10:21:49;2.10;;;0.30;;
74593;SDS011;63097;51.872;4.460;2023-03-04T10:24:16;4.03;;;0.50;;
74593;SDS011;63097;51.872;4.460;2023-03-04T10:26:45;2.75;;;0.75;;
74593;SDS011;63097;51.872;4.460;2023-03-04T10:29:16;1.77;;;0.60;;
74593;SDS011;63097;51.872;4.460;2023-03-04T10:31:44;4.05;;;0.90;;
74593;SDS011;63097;51.872;4.460;2023-03-04T10:34:11;1.90;;;0.47;;
74593;SDS011;63097;51.872;4.460;2023-03-04T10:39:15;1.83;;;0.30;;
74593;SDS011;63097;51.872;4.460;2023-03-04T10:41:44;3.55;;;0.70;;
74593;SDS011;63097;51.872;4.460;2023-03-04T10:44:17;2.47;;;0.80;;
74593;SDS011;63097;51.872;4.460;2023-03-04T10:46:43;4.13;;;0.80;;
74593;SDS011;63097;51.872;4.460;2023-03-04T10:49:16;2.58;;;0.63;;
74593;SDS011;63097;51.872;4.460;2023-03-04T10:56:54;1.05;;;0.35;;
74593;SDS011;63097;51.872;4.460;2023-03-04T11:04:52;3.72;;;0.50;;
74593;SDS011;63097;51.872;4.460;2023-03-04T11:07:38;4.15;;;1.00;;
74593;SDS011;63097;51.872;4.460;2023-03-04T11:10:10;6.07;;;1.10;;
74593;SDS011;63097;51.872;4.460;2023-03-04T11:12:38;5.80;;;0.90;;
74593;SDS011;63097;51.872;4.460;2023-03-04T11:15:14;4.78;;;0.57;;
74593;SDS011;63097;51.872;4.460;2023-03-04T11:17:42;6.57;;;0.80;;
74593;SDS011;63097;51.872;4.460;2023-03-04T11:20:22;2.10;;;0.50;;
74593;SDS011;63097;51.872;4.460;2023-03-04T11:22:52;6.97;;;0.80;;
74593;SDS011;63097;51.872;4.460;2023-03-04T11:25:31;3.60;;;0.40;;
74593;SDS011;63097;51.872;4.460;2023-03-04T11:28:05;4.75;;;0.50;;
74593;SDS011;63097;51.872;4.460;2023-03-04T11:30:41;6.90;;;0.80;;
74593;SDS011;63097;51.872;4.460;2023-03-04T11:35:54;5.57;;;0.60;;
74593;SDS011;63097;51.872;4.460;2023-03-04T11:41:10;5.68;;;0.52;;
74593;SDS011;63097;51.872;4.460;2023-03-04T11:43:41;4.32;;;0.80;;
74593;SDS011;63097;51.872;4.460;2023-03-04T11:57:34;3.17;;;0.40;;
74593;SDS011;63097;51.872;4.460;2023-03-04T12:00:28;2.38;;;0.30;;
74593;SDS011;63097;51.872;4.460;2023-03-04T12:03:56;2.42;;;0.40;;
74593;SDS011;63097;51.872;4.460;2023-03-04T12:11:43;1.15;;;0.22;;
74593;SDS011;63097;51.872;4.460;2023-03-04T12:14:24;4.75;;;0.45;;
74593;SDS011;63097;51.872;4.460;2023-03-04T12:32:07;2.25;;;0.70;;
74593;SDS011;63097;51.872;4.460;2023-03-04T12:35:20;1.90;;;0.50;;
74593;SDS011;63097;51.872;4.460;2023-03-04T12:42:50;4.50;;;0.73;;
74593;SDS011;63097;51.872;4.460;2023-03-04T12:45:50;1.85;;;0.52;;
74593;SDS011;63097;51.872;4.460;2023-03-04T12:51:02;2.33;;;0.30;;
74593;SDS011;63097;51.872;4.460;2023-03-04T12:53:59;3.10;;;0.25;;
74593;SDS011;63097;51.872;4.460;2023-03-04T12:56:52;1.95;;;0.28;;
74593;SDS011;63097;51.872;4.460;2023-03-04T12:59:26;2.17;;;0.30;;
74593;SDS011;63097;51.872;4.460;2023-03-04T13:10:39;1.20;;;0.50;;
74593;SDS011;63097;51.872;4.460;2023-03-04T13:13:05;0.57;;;0.35;;
74593;SDS011;63097;51.872;4.460;2023-03-04T13:15:31;1.10;;;0.50;;
74593;SDS011;63097;51.872;4.460;2023-03-04T13:18:00;1.75;;;0.32;;
74593;SDS011;63097;51.872;4.460;2023-03-04T13:21:04;0.40;;;0.22;;
74593;SDS011;63097;51.872;4.460;2023-03-04T13:23:31;1.38;;;0.15;;
74593;SDS011;63097;51.872;4.460;2023-03-04T13:28:23;2.78;;;0.47;;
74593;SDS011;63097;51.872;4.460;2023-03-04T13:41:31;2.67;;;0.57;;
74593;SDS011;63097;51.872;4.460;2023-03-04T13:43:37;4.97;;;0.80;;
74593;SDS011;63097;51.872;4.460;2023-03-04T13:53:48;4.03;;;0.55;;
74593;SDS011;63097;51.872;4.460;2023-03-04T13:56:35;3.67;;;0.60;;
74593;SDS011;63097;51.872;4.460;2023-03-04T14:04:19;10.00;;;0.90;;
74593;SDS011;63097;51.872;4.460;2023-03-04T14:06:52;5.03;;;0.85;;
74593;SDS011;63097;51.872;4.460;2023-03-04T14:09:19;3.75;;;0.70;;
74593;SDS011;63097;51.872;4.460;2023-03-04T14:11:53;2.45;;;0.52;;
74593;SDS011;63097;51.872;4.460;2023-03-04T14:14:21;7.57;;;0.75;;
74593;SDS011;63097;51.872;4.460;2023-03-04T14:16:51;4.95;;;0.40;;
74593;SDS011;63097;51.872;4.460;2023-03-04T14:19:32;12.57;;;0.57;;
74593;SDS011;63097;51.872;4.460;2023-03-04T14:22:03;4.28;;;0.60;;
74593;SDS011;63097;51.872;4.460;2023-03-04T14:24:59;2.15;;;0.82;;
74593;SDS011;63097;51.872;4.460;2023-03-04T14:27:36;1.10;;;0.30;;
74593;SDS011;63097;51.872;4.460;2023-03-04T14:30:03;2.25;;;0.40;;
74593;SDS011;63097;51.872;4.460;2023-03-04T14:32:32;2.47;;;0.40;;
74593;SDS011;63097;51.872;4.460;2023-03-04T14:35:01;4.03;;;0.57;;
74593;SDS011;63097;51.872;4.460;2023-03-04T14:37:48;4.75;;;0.60;;
74593;SDS011;63097;51.872;4.460;2023-03-04T14:40:21;6.07;;;0.70;;
74593;SDS011;63097;51.872;4.460;2023-03-04T14:42:54;3.20;;;0.60;;
74593;SDS011;63097;51.872;4.460;2023-03-04T14:45:22;5.07;;;0.52;;
74593;SDS011;63097;51.872;4.460;2023-03-04T14:47:48;4.88;;;0.57;;
74593;SDS011;63097;51.872;4.460;2023-03-04T14:50:19;6.57;;;0.70;;
74593;SDS011;63097;51.872;4.460;2023-03-04T14:52:46;7.40;;;1.10;;
74593;SDS011;63097;51.872;4.460;2023-03-04T14:57:38;11.77;;;1.05;;
74593;SDS011;63097;51.872;4.460;2023-03-04T15:02:44;13.63;;;1.58;;
74593;SDS011;63097;51.872;4.460;2023-03-04T15:05:17;13.88;;;1.60;;
74593;SDS011;63097;51.872;4.460;2023-03-04T15:07:48;7.47;;;1.20;;
74593;SDS011;63097;51.872;4.460;2023-03-04T15:10:18;7.63;;;0.90;;
74593;SDS011;63097;51.872;4.460;2023-03-04T15:12:51;3.33;;;0.50;;
74593;SDS011;63097;51.872;4.460;2023-03-04T15:18:15;10.65;;;1.48;;
74593;SDS011;63097;51.872;4.460;2023-03-04T15:20:55;7.25;;;1.02;;
74593;SDS011;63097;51.872;4.460;2023-03-04T15:23:20;11.88;;;0.95;;
74593;SDS011;63097;51.872;4.460;2023-03-04T15:25:49;5.00;;;0.75;;
74593;SDS011;63097;51.872;4.460;2023-03-04T15:28:18;4.13;;;0.90;;
74593;SDS011;63097;51.872;4.460;2023-03-04T15:30:44;14.25;;;1.33;;
74593;SDS011;63097;51.872;4.460;2023-03-04T15:33:10;8.70;;;1.10;;
74593;SDS011;63097;51.872;4.460;2023-03-04T15:35:36;10.85;;;1.25;;
74593;SDS011;63097;51.872;4.460;2023-03-04T15:38:04;13.70;;;0.98;;
74593;SDS011;63097;51.872;4.460;2023-03-04T15:40:34;5.85;;;0.50;;
74593;SDS011;63097;51.872;4.460;2023-03-04T15:43:02;13.68;;;0.80;;
74593;SDS011;63097;51.872;4.460;2023-03-04T15:45:33;8.13;;;0.95;;
74593;SDS011;63097;51.872;4.460;2023-03-04T15:48:00;8.70;;;0.88;;
74593;SDS011;63097;51.872;4.460;2023-03-04T15:50:27;16.48;;;0.93;;
74593;SDS011;63097;51.872;4.460;2023-03-04T15:52:55;11.10;;;0.80;;
74593;SDS011;63097;51.872;4.460;2023-03-04T15:55:23;5.55;;;1.13;;
74593;SDS011;63097;51.872;4.460;2023-03-04T15:57:51;8.55;;;0.70;;
74593;SDS011;63097;51.872;4.460;2023-03-04T16:00:19;3.05;;;0.73;;
74593;SDS011;63097;51.872;4.460;2023-03-04T16:02:44;12.25;;;0.80;;
74593;SDS011;63097;51.872;4.460;2023-03-04T16:05:10;11.18;;;1.05;;
74593;SDS011;63097;51.872;4.460;2023-03-04T16:07:35;10.27;;;0.85;;
74593;SDS011;63097;51.872;4.460;2023-03-04T16:12:51;8.48;;;1.23;;
74593;SDS011;63097;51.872;4.460;2023-03-04T16:15:21;9.32;;;0.95;;
74593;SDS011;63097;51.872;4.460;2023-03-04T16:17:48;9.23;;;1.05;;
74593;SDS011;63097;51.872;4.460;2023-03-04T16:20:15;8.75;;;0.70;;
74593;SDS011;63097;51.872;4.460;2023-03-04T16:22:46;13.48;;;1.33;;
74593;SDS011;63097;51.872;4.460;2023-03-04T16:25:14;4.75;;;0.65;;
74593;SDS011;63097;51.872;4.460;2023-03-04T16:27:40;10.25;;;1.42;;
74593;SDS011;63097;51.872;4.460;2023-03-04T16:30:07;5.90;;;0.65;;
74593;SDS011;63097;51.872;4.460;2023-03-04T16:32:37;10.57;;;0.90;;
74593;SDS011;63097;51.872;4.460;2023-03-04T16:35:03;8.77;;;1.30;;
74593;SDS011;63097;51.872;4.460;2023-03-04T16:37:28;9.00;;;1.20;;
74593;SDS011;63097;51.872;4.460;2023-03-04T16:39:54;8.02;;;1.15;;
74593;SDS011;63097;51.872;4.460;2023-03-04T16:42:19;11.32;;;0.80;;
74593;SDS011;63097;51.872;4.460;2023-03-04T16:44:45;6.95;;;0.70;;